Time;durP1;ratioP1;P1;durP2;ratioP2;P2;SDS_P1;SDS_P2;PMS_P1;PMS_P2;Temp;Humidity;BMP_temperature;BMP_pressure;BME280_temperature;BME280_humidity;BME280_pressure;Samples;Min_cycle;Max_cycle;Signal;HPM_P1;HPM_P2
2021/03/31 00:02:01;;;;;;;18.80;7.25;;;12.00;47.90;;;;;;4992125;28;20031;-76
2021/03/31 00:04:26;;;;;;;28.17;8.52;;;12.10;48.00;;;;;;4991001;28;20038;-76
2021/03/31 00:06:52;;;;;;;21.25;8.50;;;12.00;48.10;;;;;;4992189;28;20031;-76
2021/03/31 00:09:17;;;;;;;27.50;8.70;;;12.00;48.20;;;;;;4992306;28;20034;-75
2021/03/31 00:11:43;;;;;;;21.75;6.82;;;12.00;48.40;;;;;;5007322;28;20448;-76
2021/03/31 00:14:11;;;;;;;20.80;7.47;;;12.00;48.60;;;;;;4993246;28;20468;-77
2021/03/31 00:16:37;;;;;;;15.85;7.47;;;12.00;48.80;;;;;;4990577;28;20126;-75
2021/03/31 00:19:03;;;;;;;19.75;6.95;;;12.00;49.00;;;;;;5006583;28;20368;-77
2021/03/31 00:21:28;;;;;;;18.00;8.10;;;11.90;49.50;;;;;;4991538;28;20034;-77
2021/03/31 00:23:54;;;;;;;17.02;7.10;;;11.90;49.20;;;;;;4991181;28;20019;-77
2021/03/31 00:26:20;;;;;;;14.23;6.78;;;11.90;49.10;;;;;;4993191;28;20058;-76
2021/03/31 00:28:46;;;;;;;23.38;7.00;;;11.90;49.20;;;;;;4991376;28;20056;-76
2021/03/31 00:31:12;;;;;;;16.27;7.75;;;11.90;49.50;;;;;;4991459;28;20166;-77
2021/03/31 00:33:38;;;;;;;14.75;6.90;;;11.80;50.10;;;;;;4991203;28;20026;-77
2021/03/31 00:36:04;;;;;;;16.85;6.82;;;11.80;50.20;;;;;;4990161;28;20042;-78
2021/03/31 00:38:30;;;;;;;21.27;7.90;;;11.80;50.30;;;;;;4992918;28;20041;-77
2021/03/31 00:40:56;;;;;;;25.65;8.30;;;11.70;50.50;;;;;;4990562;28;20144;-77
2021/03/31 00:43:23;;;;;;;17.92;6.93;;;11.70;50.50;;;;;;4990395;28;20046;-76
2021/03/31 00:45:49;;;;;;;14.73;7.37;;;11.70;50.30;;;;;;4990150;28;20041;-77
2021/03/31 00:48:16;;;;;;;17.67;7.75;;;11.80;50.20;;;;;;4991172;28;20034;-77
2021/03/31 00:51:03;;;;;;;17.98;6.80;;;11.70;50.30;;;;;;4991215;28;20034;-77
2021/03/31 00:53:36;;;;;;;18.50;7.07;;;11.70;50.20;;;;;;4992437;28;20038;-77
2021/03/31 00:56:02;;;;;;;17.60;7.47;;;11.70;50.60;;;;;;4990937;28;20448;-77
2021/03/31 00:58:28;;;;;;;16.52;7.00;;;11.70;50.60;;;;;;4991554;28;20052;-77
2021/03/31 01:00:54;;;;;;;21.70;7.25;;;11.70;50.70;;;;;;4990941;28;20090;-77
2021/03/31 01:03:20;;;;;;;18.15;7.85;;;11.80;51.10;;;;;;4990964;28;20034;-78
2021/03/31 01:05:45;;;;;;;17.90;6.65;;;11.80;50.90;;;;;;4990675;28;20026;-77
2021/03/31 01:08:11;;;;;;;16.77;7.03;;;11.70;51.00;;;;;;4992512;28;20030;-76
2021/03/31 01:10:44;;;;;;;15.75;6.70;;;11.60;51.20;;;;;;4990622;28;20321;-76
2021/03/31 01:13:17;;;;;;;17.58;7.53;;;11.60;51.20;;;;;;4990815;28;20039;-76
2021/03/31 01:15:45;;;;;;;14.15;6.18;;;11.50;51.60;;;;;;4989748;28;20409;-76
2021/03/31 01:18:50;;;;;;;15.73;6.75;;;11.50;51.50;;;;;;4990664;28;20049;-76
2021/03/31 01:21:53;;;;;;;17.00;7.10;;;11.50;51.50;;;;;;4990856;28;20036;-76
2021/03/31 01:24:55;;;;;;;15.52;6.97;;;11.60;51.40;;;;;;4990951;28;20034;-76
2021/03/31 01:27:58;;;;;;;16.17;6.53;;;11.60;51.10;;;;;;4989739;28;20027;-76
2021/03/31 01:30:41;;;;;;;19.10;7.78;;;11.60;51.30;;;;;;4990441;28;20027;-76
2021/03/31 01:33:44;;;;;;;16.45;6.75;;;11.50;51.60;;;;;;4990762;28;20037;-76
2021/03/31 01:36:13;;;;;;;18.88;7.10;;;11.50;52.40;;;;;;5001276;28;20113;-77
2021/03/31 01:38:45;;;;;;;18.83;7.10;;;11.40;52.40;;;;;;5012018;28;20083;-77
2021/03/31 01:41:12;;;;;;;17.42;7.00;;;11.40;52.50;;;;;;5010597;28;20038;-77
2021/03/31 01:43:38;;;;;;;17.05;7.32;;;11.30;52.50;;;;;;5009927;28;20038;-79
2021/03/31 01:46:05;;;;;;;15.23;7.05;;;11.30;52.50;;;;;;5009758;28;20041;-77
2021/03/31 01:48:32;;;;;;;16.67;7.10;;;11.30;52.70;;;;;;5008577;28;20443;-77
2021/03/31 01:51:10;;;;;;;20.17;8.13;;;11.30;52.50;;;;;;5008973;28;20036;-77
2021/03/31 01:53:38;;;;;;;15.48;6.53;;;11.20;53.00;;;;;;5010613;28;20032;-77
2021/03/31 01:56:05;;;;;;;14.90;7.03;;;11.20;52.50;;;;;;5008686;28;20026;-78
2021/03/31 01:58:32;;;;;;;20.63;7.35;;;11.20;52.70;;;;;;5009882;28;20121;-77
2021/03/31 02:00:58;;;;;;;17.37;7.33;;;11.30;52.80;;;;;;5008538;28;20041;-76
2021/03/31 02:03:28;;;;;;;17.13;7.30;;;11.30;52.90;;;;;;5009741;28;20026;-77
2021/03/31 02:05:55;;;;;;;14.10;6.28;;;11.20;52.80;;;;;;5009439;28;20037;-76
2021/03/31 02:08:22;;;;;;;18.77;6.72;;;11.20;53.00;;;;;;5011612;28;20030;-76
2021/03/31 02:10:49;;;;;;;17.80;6.60;;;11.20;53.50;;;;;;5010229;28;20108;-77
2021/03/31 02:13:15;;;;;;;14.13;6.53;;;11.10;53.70;;;;;;5009988;28;20069;-76
2021/03/31 02:15:41;;;;;;;15.75;6.63;;;11.10;53.50;;;;;;5009484;28;20042;-76
2021/03/31 02:18:11;;;;;;;16.85;6.28;;;11.00;53.60;;;;;;5010889;28;20538;-76
2021/03/31 02:20:37;;;;;;;14.50;6.65;;;11.00;53.20;;;;;;5015101;28;20033;-77
2021/03/31 02:23:04;;;;;;;15.63;6.47;;;11.00;53.80;;;;;;5013411;28;20046;-76
2021/03/31 02:25:30;;;;;;;17.92;6.75;;;11.00;53.50;;;;;;5011853;28;20249;-76
2021/03/31 02:27:56;;;;;;;15.90;6.57;;;10.90;54.00;;;;;;5012451;28;20034;-75
2021/03/31 02:30:25;;;;;;;16.05;6.43;;;10.90;54.30;;;;;;5013487;28;20093;-76
2021/03/31 02:32:55;;;;;;;14.40;6.38;;;10.90;54.10;;;;;;5011488;28;20117;-76
2021/03/31 02:35:23;;;;;;;19.60;6.18;;;10.90;54.10;;;;;;5015153;28;20356;-75
2021/03/31 02:37:59;;;;;;;13.00;6.10;;;10.90;54.20;;;;;;5012343;28;20034;-75
2021/03/31 02:40:27;;;;;;;16.95;6.25;;;10.80;54.40;;;;;;5013053;28;20041;-75
2021/03/31 02:42:54;;;;;;;14.40;6.18;;;10.80;54.60;;;;;;5013294;28;20117;-74
2021/03/31 02:45:22;;;;;;;14.00;5.80;;;10.90;54.70;;;;;;5013257;28;20034;-75
2021/03/31 02:47:50;;;;;;;15.55;6.43;;;10.90;53.60;;;;;;5012931;28;20040;-75
2021/03/31 02:50:20;;;;;;;13.87;6.73;;;10.90;53.20;;;;;;5015090;28;20013;-76
2021/03/31 02:52:49;;;;;;;14.05;6.40;;;10.90;53.20;;;;;;5012644;28;20034;-76
2021/03/31 02:55:16;;;;;;;14.50;6.22;;;10.90;53.60;;;;;;5012936;28;20038;-74
2021/03/31 02:57:43;;;;;;;14.55;6.10;;;10.90;53.20;;;;;;5013160;28;20034;-76
2021/03/31 03:00:11;;;;;;;15.45;6.70;;;10.90;53.50;;;;;;5012402;28;20040;-77
2021/03/31 03:02:39;;;;;;;16.38;6.35;;;10.80;54.40;;;;;;5014168;28;20033;-76
2021/03/31 03:05:10;;;;;;;13.45;5.90;;;10.70;54.20;;;;;;5011344;28;20096;-77
2021/03/31 03:07:37;;;;;;;16.98;6.75;;;10.70;54.40;;;;;;5012741;28;20030;-76
2021/03/31 03:10:05;;;;;;;18.42;6.60;;;10.70;54.40;;;;;;5012316;28;20042;-77
2021/03/31 03:12:32;;;;;;;21.02;6.55;;;10.70;54.70;;;;;;5012413;28;20138;-76
2021/03/31 03:14:58;;;;;;;15.82;6.88;;;10.70;54.60;;;;;;5011464;28;20034;-77
2021/03/31 03:17:24;;;;;;;11.55;5.85;;;10.60;54.40;;;;;;5013866;28;20104;-76
2021/03/31 03:19:50;;;;;;;14.63;6.18;;;10.60;54.60;;;;;;5012673;28;20340;-76
2021/03/31 03:22:18;;;;;;;18.00;7.15;;;10.60;54.90;;;;;;5011298;28;20497;-77
2021/03/31 03:24:46;;;;;;;13.43;5.68;;;10.50;55.20;;;;;;5012547;28;20041;-78
2021/03/31 03:27:14;;;;;;;14.02;5.97;;;10.50;55.50;;;;;;5011242;28;20316;-76
2021/03/31 03:29:44;;;;;;;;;;;10.40;55.90;;;;;;5012152;28;20021;-77
2021/03/31 03:32:11;;;;;;;15.13;6.25;;;10.40;55.70;;;;;;5012340;28;20319;-76
2021/03/31 03:34:37;;;;;;;17.92;6.47;;;10.40;55.70;;;;;;5012297;28;20559;-77
2021/03/31 03:37:04;;;;;;;17.63;7.05;;;10.40;56.10;;;;;;5011763;28;20113;-77
2021/03/31 03:39:30;;;;;;;17.55;6.13;;;10.40;55.80;;;;;;5011843;28;20038;-77
2021/03/31 03:41:55;;;;;;;12.13;5.78;;;10.40;55.40;;;;;;5011882;28;20396;-78
2021/03/31 03:44:23;;;;;;;15.85;7.20;;;10.40;55.60;;;;;;5013680;28;20030;-77
2021/03/31 03:46:52;;;;;;;15.98;6.00;;;10.40;55.60;;;;;;5011903;28;20034;-77
2021/03/31 03:49:18;;;;;;;13.23;6.55;;;10.40;55.60;;;;;;5010958;28;20107;-78
2021/03/31 03:51:45;;;;;;;16.95;7.25;;;10.50;55.70;;;;;;5012518;28;20030;-76
2021/03/31 03:54:11;;;;;;;17.45;7.57;;;10.40;56.00;;;;;;5011838;28;20065;-76
2021/03/31 03:56:37;;;;;;;15.43;7.32;;;10.40;56.00;;;;;;5012401;28;20054;-77
2021/03/31 03:59:19;;;;;;;20.98;7.53;;;10.40;55.90;;;;;;5011727;28;20041;-77
2021/03/31 04:01:46;;;;;;;17.10;6.93;;;10.30;55.70;;;;;;5011659;28;20034;-76
2021/03/31 04:04:12;;;;;;;22.23;6.78;;;10.30;55.80;;;;;;5010750;28;20033;-77
2021/03/31 04:06:38;;;;;;;17.02;6.60;;;10.40;56.10;;;;;;5011576;28;20041;-76
2021/03/31 04:09:04;;;;;;;16.45;6.97;;;10.30;55.90;;;;;;5011410;28;20026;-76
2021/03/31 04:11:31;;;;;;;15.20;6.30;;;10.30;55.80;;;;;;5012457;28;20034;-76
2021/03/31 04:14:02;;;;;;;19.88;7.20;;;10.40;56.00;;;;;;5011328;28;20149;-77
2021/03/31 04:16:33;;;;;;;21.17;7.60;;;10.40;56.20;;;;;;5011486;28;20050;-77
2021/03/31 04:19:13;;;;;;;15.57;6.55;;;10.30;56.30;;;;;;5011550;28;20108;-75
2021/03/31 04:21:40;;;;;;;18.10;7.05;;;10.40;56.50;;;;;;5011610;28;20038;-76
2021/03/31 04:24:10;;;;;;;15.20;6.97;;;10.30;56.80;;;;;;5010251;28;20140;-76
2021/03/31 04:26:37;;;;;;;18.75;7.18;;;10.30;56.90;;;;;;5012959;28;20057;-77
2021/03/31 04:29:05;;;;;;;18.65;7.38;;;10.30;57.10;;;;;;5011226;28;20529;-76
2021/03/31 04:31:33;;;;;;;24.92;7.60;;;10.30;57.30;;;;;;5010346;28;20045;-76
2021/03/31 04:34:01;;;;;;;24.65;7.78;;;10.30;57.30;;;;;;5010714;28;20029;-76
2021/03/31 04:36:29;;;;;;;25.05;7.15;;;10.30;57.80;;;;;;5011374;28;20466;-77
2021/03/31 04:38:55;;;;;;;16.02;7.60;;;10.20;57.50;;;;;;5011156;28;20025;-77
2021/03/31 04:41:20;;;;;;;18.30;7.03;;;10.20;57.30;;;;;;5011518;28;20348;-76
2021/03/31 04:43:46;;;;;;;17.48;6.53;;;10.20;57.30;;;;;;5010809;28;20042;-75
2021/03/31 04:46:12;;;;;;;16.50;6.60;;;10.20;57.30;;;;;;5009466;28;20144;-78
2021/03/31 04:48:39;;;;;;;18.30;6.60;;;10.30;57.50;;;;;;5009353;28;20033;-77
2021/03/31 04:51:06;;;;;;;16.00;7.20;;;10.30;57.30;;;;;;5009435;28;20026;-78
2021/03/31 04:53:33;;;;;;;17.43;6.97;;;10.30;57.30;;;;;;5012238;28;20049;-78
2021/03/31 04:55:59;;;;;;;18.33;7.40;;;10.40;57.20;;;;;;5010477;28;20279;-76
2021/03/31 04:58:25;;;;;;;16.55;6.72;;;10.40;57.20;;;;;;5009308;28;20164;-76
2021/03/31 05:00:50;;;;;;;18.00;7.60;;;10.40;57.50;;;;;;5010022;28;20030;-76
2021/03/31 05:03:16;;;;;;;25.30;7.75;;;10.40;57.40;;;;;;5010326;28;20543;-75
2021/03/31 05:05:42;;;;;;;18.48;7.32;;;10.40;57.40;;;;;;5009387;28;20148;-76
2021/03/31 05:08:08;;;;;;;19.48;7.57;;;10.40;57.40;;;;;;5012252;28;20022;-75
2021/03/31 05:10:35;;;;;;;18.77;7.55;;;10.40;57.80;;;;;;5010326;28;20378;-78
2021/03/31 05:13:01;;;;;;;17.58;6.93;;;10.40;57.80;;;;;;5009320;28;20038;-80
2021/03/31 05:15:27;;;;;;;16.70;7.35;;;10.40;57.70;;;;;;5009122;28;20125;-79
2021/03/31 05:17:52;;;;;;;18.50;8.27;;;10.40;57.80;;;;;;5008833;28;20137;-80
2021/03/31 05:20:18;;;;;;;15.35;7.03;;;10.40;58.40;;;;;;5011821;28;20026;-79
2021/03/31 05:22:44;;;;;;;18.17;8.05;;;10.50;58.40;;;;;;5009418;28;20097;-77
2021/03/31 05:25:11;;;;;;;16.38;6.65;;;10.40;58.90;;;;;;5008943;28;20033;-78
2021/03/31 05:27:37;;;;;;;18.77;7.43;;;10.30;59.40;;;;;;5008890;28;20057;-76
2021/03/31 05:30:05;;;;;;;19.95;6.55;;;10.30;59.70;;;;;;5010030;28;20060;-77
2021/03/31 05:32:31;;;;;;;;;;;10.30;59.60;;;;;;5012272;28;20021;-75
2021/03/31 05:34:56;;;;;;;16.10;7.10;;;10.30;59.70;;;;;;5009408;28;20012;-76
2021/03/31 05:37:22;;;;;;;25.42;7.50;;;10.30;60.20;;;;;;5010072;28;20034;-76
2021/03/31 05:39:47;;;;;;;26.73;8.52;;;10.20;59.90;;;;;;5010113;28;20084;-78
2021/03/31 05:42:15;;;;;;;24.27;7.57;;;10.20;60.20;;;;;;5008405;28;20026;-79
2021/03/31 05:44:41;;;;;;;20.37;7.03;;;10.20;59.90;;;;;;5011556;28;20025;-78
2021/03/31 05:47:09;;;;;;;21.42;7.18;;;10.20;60.10;;;;;;5010122;28;20267;-76
2021/03/31 05:49:36;;;;;;;21.77;7.35;;;10.30;59.90;;;;;;5009286;28;20124;-76
2021/03/31 05:52:03;;;;;;;17.70;6.80;;;10.20;60.30;;;;;;5009651;28;20467;-76
2021/03/31 05:54:28;;;;;;;19.55;7.28;;;10.30;60.30;;;;;;5009898;28;20133;-77
2021/03/31 05:56:55;;;;;;;22.02;7.65;;;10.30;60.30;;;;;;5010019;28;20054;-83
2021/03/31 05:59:21;;;;;;;17.98;7.45;;;10.40;60.40;;;;;;5011296;28;20022;-78
2021/03/31 06:01:48;;;;;;;15.85;6.90;;;10.40;60.30;;;;;;5009426;28;20026;-80
2021/03/31 06:04:18;;;;;;;19.05;7.53;;;10.50;61.20;;;;;;5010201;28;20132;-80
2021/03/31 06:06:43;;;;;;;18.98;7.70;;;10.60;60.20;;;;;;5012056;28;20114;-78
2021/03/31 06:09:10;;;;;;;22.17;7.93;;;10.60;60.80;;;;;;4999051;28;20511;-80
2021/03/31 06:11:48;;;;;;;20.52;7.68;;;10.70;60.20;;;;;;4996304;28;20018;-79
2021/03/31 06:14:14;;;;;;;21.38;8.43;;;10.70;60.30;;;;;;4995232;28;20038;-81
2021/03/31 06:16:46;;;;;;;23.27;8.07;;;10.80;60.10;;;;;;4994108;28;20061;-79
2021/03/31 06:19:19;;;;;;;23.35;8.02;;;10.80;60.10;;;;;;4993872;28;20054;-82
2021/03/31 06:25:06;;;;;;;19.23;8.48;;;11.00;60.00;;;;;;4992031;28;20038;-78
2021/03/31 06:27:33;;;;;;;19.95;7.70;;;11.00;59.80;;;;;;5008224;28;20034;-78
2021/03/31 06:30:05;;;;;;;18.05;8.32;;;11.10;59.80;;;;;;4991922;28;20034;-85
2021/03/31 06:32:37;;;;;;;22.90;8.32;;;11.20;60.20;;;;;;4996674;28;20360;-88
2021/03/31 06:35:05;;;;;;;24.08;8.00;;;11.30;59.40;;;;;;4994736;28;20108;-81
2021/03/31 06:37:37;;;;;;;29.65;12.63;;;11.40;59.00;;;;;;4990359;28;20133;-81
2021/03/31 06:40:05;;;;;;;24.20;10.23;;;11.50;58.70;;;;;;4991428;28;20038;-80
2021/03/31 06:42:43;;;;;;;22.70;9.25;;;11.60;58.50;;;;;;4991148;28;20041;-78
2021/03/31 06:45:18;;;;;;;17.60;8.50;;;11.70;58.30;;;;;;4990864;28;20030;-79
2021/03/31 06:50:15;;;;;;;19.52;8.60;;;11.90;57.70;;;;;;4993556;28;20026;-79
2021/03/31 06:52:55;;;;;;;29.23;9.13;;;12.00;57.40;;;;;;4989798;28;20034;-82
2021/03/31 06:55:23;;;;;;;22.15;9.30;;;12.10;56.90;;;;;;4997089;28;20046;-87
2021/03/31 06:57:54;;;;;;;19.33;8.65;;;12.20;56.30;;;;;;4990038;28;20044;-80
2021/03/31 07:00:35;;;;;;;19.00;7.35;;;12.40;56.10;;;;;;4991526;28;20037;-80
2021/03/31 07:03:05;;;;;;;18.38;8.15;;;12.50;56.10;;;;;;4990028;28;20448;-76
2021/03/31 07:05:32;;;;;;;18.67;7.65;;;12.60;55.20;;;;;;4995291;28;20085;-78
2021/03/31 07:08:07;;;;;;;19.10;7.45;;;12.70;54.70;;;;;;4994036;28;20538;-76
2021/03/31 07:10:49;;;;;;;16.33;7.55;;;12.90;54.20;;;;;;4994079;28;20422;-81
2021/03/31 07:13:32;;;;;;;21.15;8.63;;;13.00;54.20;;;;;;4993300;28;20042;-76
2021/03/31 07:15:59;;;;;;;15.35;6.90;;;13.10;53.90;;;;;;4992269;28;20042;-75
2021/03/31 07:18:27;;;;;;;22.77;8.23;;;13.20;53.50;;;;;;4992828;28;20038;-74
2021/03/31 07:20:53;;;;;;;19.15;8.02;;;13.40;53.20;;;;;;4992454;28;20264;-77
2021/03/31 07:23:24;;;;;;;17.63;7.65;;;13.50;52.80;;;;;;4994207;28;20026;-76
2021/03/31 07:25:50;;;;;;;22.92;8.70;;;13.70;52.30;;;;;;4991415;28;20093;-76
2021/03/31 07:28:23;;;;;;;20.00;7.88;;;13.80;52.00;;;;;;4992622;28;20089;-76
2021/03/31 07:30:49;;;;;;;24.17;9.38;;;13.90;51.80;;;;;;4992607;28;20038;-76
2021/03/31 07:33:20;;;;;;;24.67;10.48;;;14.00;52.00;;;;;;4992270;28;20061;-80
2021/03/31 07:35:47;;;;;;;17.42;9.25;;;14.10;51.60;;;;;;4992738;28;20032;-79
2021/03/31 07:38:16;;;;;;;19.75;7.70;;;14.20;51.40;;;;;;4993961;28;20022;-80
2021/03/31 07:40:44;;;;;;;19.75;8.68;;;14.30;50.70;;;;;;4991544;28;20038;-79
2021/03/31 07:43:15;;;;;;;25.58;8.15;;;14.50;50.90;;;;;;4991391;28;20038;-79
2021/03/31 07:45:49;;;;;;;16.95;7.57;;;14.60;50.40;;;;;;4990641;28;20023;-77
2021/03/31 07:48:17;;;;;;;29.58;8.65;;;14.70;49.80;;;;;;4992169;28;20080;-75
2021/03/31 07:50:43;;;;;;;19.33;8.68;;;14.80;50.00;;;;;;4991943;28;20038;-75
2021/03/31 07:53:12;;;;;;;20.67;8.93;;;14.90;49.10;;;;;;5008638;28;20027;-79
2021/03/31 07:55:49;;;;;;;20.60;8.30;;;15.00;48.90;;;;;;4991747;28;20034;-78
2021/03/31 07:58:26;;;;;;;21.67;7.32;;;15.20;49.40;;;;;;4991736;28;20042;-75
2021/03/31 08:00:58;;;;;;;21.27;8.48;;;15.30;48.80;;;;;;4991952;28;20042;-77
2021/03/31 08:03:32;;;;;;;18.98;7.60;;;15.40;49.00;;;;;;4990767;28;20030;-77
2021/03/31 08:06:01;;;;;;;19.25;7.45;;;15.60;48.80;;;;;;4991700;28;20022;-78
2021/03/31 08:08:27;;;;;;;30.63;8.57;;;15.70;48.20;;;;;;4993292;28;20027;-77
2021/03/31 08:10:53;;;;;;;20.20;8.82;;;15.80;48.10;;;;;;4990410;28;20056;-77
2021/03/31 08:13:38;;;;;;;17.52;7.60;;;15.90;47.50;;;;;;4990617;28;20049;-78
2021/03/31 08:16:26;;;;;;;23.27;7.75;;;16.00;47.70;;;;;;4991090;28;20066;-80
2021/03/31 08:18:55;;;;;;;20.10;8.50;;;16.20;47.60;;;;;;4991430;28;20066;-75
2021/03/31 08:21:23;;;;;;;18.55;8.40;;;16.30;47.50;;;;;;4991231;28;20049;-77
2021/03/31 08:23:49;;;;;;;19.60;7.72;;;16.50;47.30;;;;;;4991397;28;20026;-76
2021/03/31 08:26:41;;;;;;;18.83;8.38;;;16.70;46.60;;;;;;4992859;28;20015;-77
2021/03/31 08:29:30;;;;;;;18.20;8.73;;;16.90;46.30;;;;;;4991163;28;20404;-78
2021/03/31 08:32:00;;;;;;;19.55;8.75;;;17.60;46.00;;;;;;4991281;28;20072;-79
2021/03/31 08:34:28;;;;;;;18.45;8.38;;;18.50;45.80;;;;;;4989827;28;20039;-77
2021/03/31 08:36:54;;;;;;;21.27;8.40;;;19.50;45.00;;;;;;4990261;28;20030;-76
2021/03/31 08:39:21;;;;;;;18.15;8.20;;;20.50;43.00;;;;;;4991118;28;20034;-77
2021/03/31 08:41:53;;;;;;;18.95;8.02;;;21.40;41.70;;;;;;4991279;28;20026;-77
2021/03/31 08:44:23;;;;;;;18.13;9.02;;;22.30;40.50;;;;;;4991633;28;20110;-80
2021/03/31 08:46:52;;;;;;;16.90;8.40;;;23.10;38.50;;;;;;4991122;28;20042;-83
2021/03/31 08:49:26;;;;;;;18.00;8.85;;;23.80;37.40;;;;;;4990937;28;20030;-79
2021/03/31 08:51:54;;;;;;;23.27;11.18;;;24.60;36.20;;;;;;4991429;28;20046;-80
2021/03/31 08:54:46;;;;;;;26.45;9.65;;;25.00;34.80;;;;;;4990731;28;20022;-80
2021/03/31 08:57:15;;;;;;;21.83;9.55;;;25.70;34.50;;;;;;4986410;28;20134;-82
2021/03/31 08:59:47;;;;;;;19.27;9.38;;;26.20;32.70;;;;;;4971718;28;20089;-81
2021/03/31 09:02:16;;;;;;;16.58;9.10;;;26.60;32.10;;;;;;4970384;28;20039;-80
2021/03/31 09:04:42;;;;;;;18.17;9.73;;;27.00;31.00;;;;;;4974881;28;20558;-82
2021/03/31 09:07:14;;;;;;;22.30;10.55;;;27.60;30.70;;;;;;4989303;28;20069;-77
2021/03/31 09:09:42;;;;;;;19.40;9.55;;;28.00;29.80;;;;;;4990299;28;20034;-78
2021/03/31 09:12:09;;;;;;;;;;;28.80;29.30;;;;;;4991011;28;20034;-82
2021/03/31 09:14:37;;;;;;;17.23;8.55;;;29.60;28.60;;;;;;4992232;28;19917;-82
2021/03/31 09:17:04;;;;;;;22.00;9.63;;;30.20;27.70;;;;;;4990527;28;20059;-79
2021/03/31 09:19:35;;;;;;;19.05;10.13;;;30.60;27.30;;;;;;4989451;28;20034;-81
2021/03/31 09:22:12;;;;;;;21.20;9.73;;;30.50;26.50;;;;;;4990440;28;20056;-77
2021/03/31 09:24:42;;;;;;;17.67;9.70;;;31.40;26.70;;;;;;4989634;28;20077;-79
2021/03/31 09:27:11;;;;;;;17.42;10.40;;;31.80;26.40;;;;;;4988218;28;20098;-77
2021/03/31 09:29:42;;;;;;;21.92;10.45;;;32.20;26.00;;;;;;4992038;28;20029;-77
2021/03/31 09:32:09;;;;;;;19.38;9.77;;;32.60;25.50;;;;;;4990790;28;20027;-78
2021/03/31 09:34:35;;;;;;;21.38;10.45;;;32.70;25.20;;;;;;4990151;28;20053;-79
2021/03/31 09:37:10;;;;;;;15.20;9.93;;;32.90;24.80;;;;;;4989777;28;20034;-80
2021/03/31 09:39:43;;;;;;;18.08;9.75;;;33.10;24.70;;;;;;4989074;28;20036;-80
2021/03/31 09:42:18;;;;;;;17.23;10.30;;;33.50;24.30;;;;;;4990330;28;20362;-81
2021/03/31 09:44:44;;;;;;;16.30;9.38;;;33.30;23.70;;;;;;4989046;28;20109;-82
2021/03/31 09:47:10;;;;;;;16.08;9.88;;;33.90;23.80;;;;;;4991686;28;20068;-83
2021/03/31 09:49:36;;;;;;;19.20;9.50;;;33.70;23.70;;;;;;4990200;28;20062;-82
2021/03/31 09:52:04;;;;;;;19.55;10.00;;;33.50;23.80;;;;;;4989801;28;20064;-81
2021/03/31 09:54:30;;;;;;;21.42;9.95;;;33.70;23.60;;;;;;4989946;28;20038;-80
2021/03/31 09:56:57;;;;;;;19.65;9.73;;;34.20;23.70;;;;;;4989674;28;20022;-82
2021/03/31 09:59:24;;;;;;;16.83;9.98;;;34.60;23.20;;;;;;4991521;28;20022;-81
2021/03/31 10:01:50;;;;;;;17.40;10.27;;;34.60;23.30;;;;;;4990370;28;20080;-80
2021/03/31 10:04:16;;;;;;;17.08;9.65;;;34.70;22.50;;;;;;4988922;28;20038;-77
2021/03/31 10:06:42;;;;;;;16.03;10.00;;;34.70;22.50;;;;;;4989044;28;20039;-81
2021/03/31 10:09:17;;;;;;;19.15;10.43;;;35.30;22.60;;;;;;4990016;28;20456;-79
2021/03/31 10:11:46;;;;;;;16.05;10.13;;;35.50;22.70;;;;;;4990231;28;20030;-80
2021/03/31 10:14:19;;;;;;;16.73;9.60;;;35.40;22.50;;;;;;4992373;28;20333;-81
2021/03/31 10:16:46;;;;;;;17.17;9.90;;;35.90;22.20;;;;;;4990612;28;20054;-78
2021/03/31 10:19:16;;;;;;;15.32;9.70;;;35.20;22.00;;;;;;4990380;28;20110;-79
2021/03/31 10:21:42;;;;;;;17.33;9.77;;;35.90;21.90;;;;;;4989934;28;20034;-80
2021/03/31 10:24:10;;;;;;;14.55;9.82;;;36.30;21.80;;;;;;4989183;28;20060;-78
2021/03/31 10:26:38;;;;;;;20.85;10.88;;;37.00;21.40;;;;;;4991552;28;20022;-79
2021/03/31 10:29:17;;;;;;;19.58;10.15;;;37.10;21.40;;;;;;4990108;28;20049;-79
2021/03/31 10:31:45;;;;;;;12.95;9.73;;;36.20;21.30;;;;;;4988575;28;20038;-76
2021/03/31 10:34:13;;;;;;;;;;;36.50;21.00;;;;;;4989202;28;20531;-79
2021/03/31 10:37:10;;;;;;;18.52;11.10;;;36.40;21.50;;;;;;4988625;28;19975;-79
2021/03/31 10:50:01;;;;;;;33.15;23.27;;;38.00;21.00;;;;;;4993289;28;20031;-80
2021/03/31 10:52:33;;;;;;;23.20;11.05;;;37.00;20.30;;;;;;4992423;28;20050;-80
2021/03/31 10:54:59;;;;;;;19.08;11.02;;;36.80;20.30;;;;;;4993164;28;20035;-83
2021/03/31 10:57:25;;;;;;;19.92;10.23;;;35.60;20.20;;;;;;4993250;28;20023;-81
2021/03/31 10:59:50;;;;;;;17.58;10.80;;;35.60;20.80;;;;;;4991404;28;20099;-77
2021/03/31 11:02:16;;;;;;;15.85;10.27;;;35.50;20.70;;;;;;4994243;28;20101;-78
2021/03/31 11:04:44;;;;;;;20.80;10.40;;;36.70;20.60;;;;;;4992997;28;20038;-79
2021/03/31 11:07:10;;;;;;;19.65;10.52;;;36.80;20.30;;;;;;4992948;28;20042;-81
2021/03/31 11:09:39;;;;;;;15.85;10.18;;;36.10;20.30;;;;;;4993157;28;20034;-77
2021/03/31 11:12:06;;;;;;;19.50;10.23;;;37.20;19.90;;;;;;4993250;28;20475;-82
2021/03/31 11:14:32;;;;;;;17.52;10.10;;;37.00;19.60;;;;;;4994204;28;20038;-83
2021/03/31 11:17:03;;;;;;;17.58;10.38;;;36.60;20.20;;;;;;4992881;28;20054;-77
2021/03/31 11:27:16;;;;;;;20.27;11.45;;;36.50;20.10;;;;;;4993109;28;20073;-79
2021/03/31 11:29:42;;;;;;;24.40;13.15;;;36.00;20.50;;;;;;4992605;28;20050;-78
2021/03/31 11:32:08;;;;;;;20.10;10.63;;;35.60;20.60;;;;;;4994044;28;20033;-80
2021/03/31 11:34:33;;;;;;;17.15;10.93;;;35.60;20.40;;;;;;4992543;28;20030;-83
2021/03/31 11:36:59;;;;;;;18.27;12.80;;;35.50;20.70;;;;;;4991503;28;20400;-81
2021/03/31 11:39:25;;;;;;;14.77;9.48;;;34.50;20.90;;;;;;4992255;28;20037;-87
2021/03/31 11:41:51;;;;;;;19.20;9.50;;;34.10;20.80;;;;;;4992302;28;20109;-84
2021/03/31 11:44:17;;;;;;;14.73;7.43;;;33.60;20.80;;;;;;4994080;28;20051;-81
2021/03/31 11:46:42;;;;;;;18.48;9.75;;;33.00;21.10;;;;;;4992159;28;20065;-83
2021/03/31 11:49:08;;;;;;;15.00;9.35;;;32.30;21.90;;;;;;4992297;28;20402;-84
2021/03/31 11:51:34;;;;;;;14.43;9.07;;;31.30;22.40;;;;;;4990702;28;20077;-78
2021/03/31 11:54:00;;;;;;;16.83;8.95;;;30.60;22.90;;;;;;4992132;28;20034;-82
2021/03/31 11:56:26;;;;;;;17.42;9.93;;;30.40;23.30;;;;;;4993714;28;20780;-77
2021/03/31 11:58:53;;;;;;;16.85;10.18;;;29.90;23.60;;;;;;4992416;28;20046;-82
2021/03/31 12:01:19;;;;;;;15.98;8.98;;;30.00;23.70;;;;;;4992245;28;20508;-77
2021/03/31 12:03:45;;;;;;;19.10;9.52;;;29.60;23.50;;;;;;4991877;28;20070;-78
2021/03/31 12:06:10;;;;;;;19.83;9.02;;;29.20;23.80;;;;;;4992017;28;20080;-76
2021/03/31 12:08:37;;;;;;;17.38;9.43;;;28.90;24.30;;;;;;4993394;28;20030;-79
2021/03/31 12:11:03;;;;;;;18.88;9.98;;;28.80;24.60;;;;;;4991551;28;20405;-78
2021/03/31 12:13:29;;;;;;;16.70;9.25;;;28.70;24.90;;;;;;4991480;28;20045;-75
2021/03/31 12:15:54;;;;;;;17.80;9.77;;;28.60;25.00;;;;;;4990064;28;20050;-78
2021/03/31 12:18:20;;;;;;;16.58;9.70;;;28.50;25.20;;;;;;4991528;28;20030;-77
2021/03/31 12:20:46;;;;;;;15.55;9.23;;;28.50;25.20;;;;;;4991822;28;20158;-77
2021/03/31 12:23:11;;;;;;;21.65;10.25;;;28.30;25.50;;;;;;4993035;28;20121;-77
2021/03/31 12:25:37;;;;;;;18.77;10.35;;;28.10;25.30;;;;;;4990678;28;20037;-80
2021/03/31 12:28:04;;;;;;;20.17;9.38;;;28.00;25.40;;;;;;4991309;28;20074;-82
2021/03/31 12:30:29;;;;;;;20.13;9.73;;;28.00;26.20;;;;;;4991262;28;20342;-81
2021/03/31 12:32:55;;;;;;;18.60;11.43;;;27.70;26.00;;;;;;4991566;28;20029;-83
2021/03/31 12:35:23;;;;;;;21.67;9.93;;;27.60;25.50;;;;;;4993206;28;20446;-79
2021/03/31 12:37:49;;;;;;;15.82;8.77;;;27.50;25.50;;;;;;4989410;28;20369;-79
2021/03/31 12:40:15;;;;;;;17.55;9.25;;;27.30;25.60;;;;;;4993031;28;20475;-81
2021/03/31 12:42:41;;;;;;;20.65;9.85;;;27.30;25.90;;;;;;4992578;28;20460;-79
2021/03/31 12:45:08;;;;;;;22.17;10.90;;;27.40;26.00;;;;;;4992837;28;20376;-81
2021/03/31 12:47:34;;;;;;;15.60;9.32;;;27.20;25.70;;;;;;4994267;28;20055;-79
2021/03/31 12:50:03;;;;;;;16.63;9.75;;;27.20;26.20;;;;;;4992805;28;20096;-80
2021/03/31 12:52:39;;;;;;;17.00;9.35;;;27.00;26.30;;;;;;4991906;28;20100;-83
2021/03/31 12:55:08;;;;;;;16.65;9.23;;;27.00;26.70;;;;;;4992575;28;20038;-79
2021/03/31 12:57:34;;;;;;;17.40;9.45;;;27.10;26.20;;;;;;4992298;28;20058;-79
2021/03/31 13:00:00;;;;;;;21.02;10.95;;;27.00;25.50;;;;;;4991255;28;20041;-84
2021/03/31 13:02:27;;;;;;;15.57;9.30;;;27.00;25.70;;;;;;4991769;28;20097;-81
2021/03/31 13:04:53;;;;;;;19.70;8.25;;;27.00;25.90;;;;;;4991298;28;20078;-78
2021/03/31 13:07:19;;;;;;;17.52;9.23;;;26.80;25.40;;;;;;4990798;28;20054;-78
2021/03/31 13:09:45;;;;;;;20.23;9.27;;;26.80;25.80;;;;;;4991915;28;20039;-80